Badger Spring Valley, Nevada Weather observations

Data are for 10 minute period ending at time listed.
 Day   Time   Solar   Ave.   Ave.  Ave.  Vector  Max.   Baro.   Total    
  of    of     Rad.   Air    Rel.  Wind   Wind   Wind  Press.  Precip.   
Year   Day            Temp.  Hum.  Speed  Dir.   Gust                    
2016   (PST)  Kw/m2    F      %     mph   deg.    mph    mb.     in.     
-------------------------------------------------------------------------
  42   14:20   0.61   65.4    15    3.7   131     8.5   836.8    0.00 
  42   14:30   0.60   66.4    14    5.4   161     8.3   836.9    0.00 
  42   14:40   0.53   65.6    14    4.4   140     7.8   837.1    0.00 
  42   14:50   0.48   65.3    14    5.3   163     8.0   837.1    0.00 
  42   15:00   0.48   65.4    14    4.9   176     7.3   837.2    0.00 
  42   15:10   0.42   65.2    13    5.0   161     7.7   837.2    0.00 
  42   15:20   0.37   64.4    14    4.1   146     6.6   837.2    0.00 
  42   15:30   0.28   63.8    14    4.5   163     7.1   837.2    0.00 
  42   15:40   0.37   64.0    14    4.9   161     7.6   837.2    0.00 
  42   15:50   0.32   63.8    14    3.6   161     6.8   837.2    0.00 
  42   16:00   0.27   63.8    14    3.3   162     5.6   837.2    0.00 
  42   16:10   0.18   63.2    14    3.2   169     4.7   837.3    0.00 
  42   16:20   0.17   62.3    14    3.8   147     6.0   837.3    0.00 
  42   16:30   0.14   61.9    15    3.4   162     4.5   837.2    0.00 
  42   16:40   0.13   61.2    15    3.3   170     4.2   837.2    0.00 
  42   16:50   0.10   60.6    17    3.4   191     5.0   837.3    0.00 
  42   17:00   0.04   58.7    22    2.9   256     3.7   837.2    0.00 
  42   17:10   0.02   56.1    25    3.5   286     5.0   837.2    0.00 
  42   17:20   0.01   53.6    30    4.6   297     6.2   837.0    0.00 
  42   17:30   0.00   52.4    31    4.6   293     5.8   836.8    0.00 
  42   17:40   0.00   51.5    32    5.9   294     6.9   836.8    0.00 
  42   17:50   0.00   50.6    33    5.4   300     6.3   836.9    0.00 
  42   18:00   0.00   50.0    33    5.6   308     6.4   837.0    0.00 
  42   18:10   0.00   50.3    31    5.9   307     6.6   837.2    0.00 
  42   18:20   0.00   50.1    30    5.5   305     6.5   837.3    0.00 
  42   18:30   0.00   49.2    30    6.2   300     7.3   837.3    0.00 
  42   18:40   0.00   49.2    28    5.9   295     7.2   837.4    0.00 
  42   18:50   0.00   49.6    27    6.4   289     7.8   837.4    0.00 
  42   19:00   0.00   51.1    24    5.7   294     7.8   837.4    0.00 
  42   19:10   0.00   51.2    24    5.6   294     7.7   837.4    0.00 
  42   19:20   0.00   49.2    28    6.4   297     7.7   837.4    0.00 
  42   19:30   0.00   48.8    28    6.6   290     7.7   837.4    0.00 
  42   19:40   0.00   48.6    28    7.4   290     9.6   837.5    0.00 
  42   19:50   0.00   48.5    28    7.0   292     8.8   837.5    0.00 
  42   20:00   0.00   48.9    28    6.5   289     7.9   837.6    0.00 
  42   20:10   0.00   48.6    28    6.7   291     8.2   837.6    0.00 
  42   20:20   0.00   48.9    27    7.5   290     9.2   837.7    0.00 
  42   20:30   0.00   49.4    25    7.9   288     8.8   837.6    0.00 
  42   20:40   0.00   49.3    25    8.5   289    10.2   837.6    0.00 
  42   20:50   0.00   48.6    26    8.1   291    10.2   837.6    0.00 
  42   21:00   0.00   48.8    27    6.4   292     7.5   837.5    0.00 
  42   21:10   0.00   48.6    27    8.1   287    10.6   837.5    0.00 
  42   21:20   0.00   48.1    27    9.4   287    11.5   837.6    0.00 
  42   21:30   0.00   46.5    30    9.2   293    11.0   837.6    0.00 
  42   21:40   0.00   45.9    31    6.5   302     7.7   837.6    0.00 
  42   21:50   0.00   46.5    30    7.1   300     8.3   837.6    0.00 
  42   22:00   0.00   45.8    31    6.7   303     8.3   837.6    0.00 
  42   22:10   0.00   46.0    30    7.1   298     8.5   837.6    0.00 
  42   22:20   0.00   45.9    30    7.6   298     9.7   837.6    0.00 
  42   22:30   0.00   45.9    29    5.1   306     6.4   837.7    0.00 
  42   22:40   0.00   45.8    28    5.6   305     7.0   837.6    0.00 
  42   22:50   0.00   46.5    27    5.7   304     7.2   837.6    0.00 
  42   23:00   0.00   46.4    26    6.3   298     7.7   837.6    0.00 
  42   23:10   0.00   46.2    25    6.8   294     8.7   837.6    0.00 
  42   23:20   0.00   46.2    26    4.4   308     5.6   837.6    0.00 
  42   23:30   0.00   46.1    25    5.3   303     6.6   837.6    0.00 
  42   23:40   0.00   46.1    24    7.9   295    10.3   837.6    0.00 
  42   23:50   0.00   45.0    26    7.4   302     9.6   837.6    0.00 
  43    0:00   0.00   45.4    25    5.6   298     7.1   837.5    0.00 
  43    0:10   0.00   45.8    24    6.6   293     8.8   837.5    0.00 
  43    0:20   0.00   44.9    25    7.2   293     9.8   837.5    0.00 
  43    0:30   0.00   45.0    25    9.0   296    10.2   837.5    0.00 
  43    0:40   0.00   44.8    25    8.3   293     9.5   837.5    0.00 
  43    0:50   0.00   43.7    27    7.3   295     8.6   837.5    0.00 
  43    1:00   0.00   44.5    25    4.8   307     7.0   837.5    0.00 
  43    1:10   0.00   45.0    25    4.9   305     7.8   837.5    0.00 
  43    1:20   0.00   45.5    24    4.8   305     8.8   837.5    0.00 
  43    1:30   0.00   45.2    24    4.6   309     6.1   837.5    0.00 
  43    1:40   0.00   45.0    24    4.3   302     6.8   837.5    0.00 
  43    1:50   0.00   44.8    24    4.1   307     6.1   837.4    0.00 
  43    2:00   0.00   44.0    26    4.9   306     6.5   837.3    0.00 
  43    2:10   0.00   43.7    28    3.9   321     4.8   837.3    0.00 
  43    2:20   0.00   43.8    28    4.9   312     6.6   837.3    0.00 
  43    2:30   0.00   44.9    28    4.8   313     6.2   837.3    0.00 
  43    2:40   0.00   45.5    29    4.8   312     6.2   837.3    0.00 
  43    2:50   0.00   45.0    29    5.6   308     6.9   837.2    0.00 
  43    3:00   0.00   44.1    28    5.5   308     7.3   837.2    0.00 
  43    3:10   0.00   44.7    27    5.0   307     6.6   837.2    0.00 
  43    3:20   0.00   44.9    26    5.4   304     7.2   837.2    0.00 
  43    3:30   0.00   44.5    26    4.7   308     6.6   837.2    0.00 
  43    3:40   0.00   44.7    26    5.5   312     7.5   837.2    0.00 
  43    3:50   0.00   44.4    27    5.5   309     7.9   837.1    0.00 
  43    4:00   0.00   43.9    28    7.3   293     9.1   837.1    0.00 
  43    4:10   0.00   42.7    30    6.7   297     8.2   837.0    0.00 
  43    4:20   0.00   42.6    31    6.8   296     8.9   837.0    0.00 
  43    4:30   0.00   43.4    30    5.4   295     8.0   837.0    0.00 
  43    4:40   0.00   43.7    30    5.1   300     6.9   837.0    0.00 
  43    4:50   0.00   43.4    31    5.5   303     6.9   837.0    0.00 
  43    5:00   0.00   43.3    32    6.6   303     7.7   837.1    0.00 
  43    5:10   0.00   42.5    33    6.1   312     7.5   837.1    0.00 
  43    5:20   0.00   41.0    35    6.6   312     8.3   837.1    0.00 
  43    5:30   0.00   42.3    33    6.7   314     8.6   837.2    0.00 
  43    5:40   0.00   43.8    31    6.4   320     9.6   837.1    0.00 
  43    5:50   0.00   44.5    30    5.9   310     9.1   837.1    0.00 
  43    6:00   0.00   43.7    31    6.4   314     7.9   837.2    0.00 
  43    6:10   0.00   41.4    34    6.7   310     8.6   837.3    0.00 
  43    6:20   0.00   42.7    33    6.6   313     9.3   837.3    0.00 
  43    6:30   0.00   44.0    30    7.1   312    10.4   837.4    0.00 
  43    6:40   0.01   40.9    33    6.7   317     8.8   837.5    0.00 
  43    6:50   0.01   42.2    32    6.6   315     9.1   837.5    0.00 
  43    7:00   0.05   43.5    31    6.4   311     9.6   837.5    0.00 
  43    7:10   0.09   46.4    30   10.4   348    14.5   837.5    0.00 
  43    7:20   0.12   48.7    30   11.2   351    14.5   837.5    0.00 
  43    7:30   0.15   49.7    29   11.3   351    14.2   837.5    0.00 
  43    7:40   0.18   51.0    29    7.9   351    12.1   837.5    0.00 
  43    7:50   0.22   52.8    27    5.6   346     9.3   837.5    0.00 
  43    8:00   0.26   54.3    26    7.6   355    10.4   837.4    0.00 
  43    8:10   0.29   55.4    26    6.6   356     8.9   837.4    0.00 
  43    8:20   0.33   56.2    25    6.7   360     9.2   837.4    0.00 
  43    8:30   0.37   57.0    24    5.9     1     8.1   837.4    0.00 
  43    8:40   0.41   58.3    22    3.8    12     5.6   837.5    0.00 
  43    8:50   0.43   59.2    20    3.1    27     5.3   837.6    0.00 
  43    9:00   0.45   59.9    19    3.1    34     5.0   837.7    0.00 
  43    9:10   0.47   59.5    19    3.7    38     5.3   837.9    0.00 
  43    9:20   0.51   59.6    19    2.7    36     5.3   837.9    0.00 
  43    9:30   0.55   60.6    17    2.5    48     4.7   838.0    0.00 
  43    9:40   0.55   61.3    18    3.1   111     4.7   838.0    0.00 
  43    9:50   0.48   61.1    19    4.5   109     7.2   838.1    0.00 
  43   10:00   0.64   61.2    20    5.3   100     7.7   838.1    0.00 
  43   10:10   0.66   61.3    20    6.0    99     7.8   838.0    0.00 
  43   10:20   0.71   61.4    19    5.5    94     8.1   838.0    0.00 
  43   10:30   0.71   62.0    19    4.8    88     8.1   837.9    0.00 
  43   10:40   0.62   61.9    17    4.5   100     8.3   837.9    0.00 
  43   10:50   0.69   62.4    18    3.2   114     5.9   837.8    0.00 
  43   11:00   0.76   62.7    20    4.3   118     7.6   837.8    0.00 
  43   11:10   0.79   62.6    19    4.1   119     7.7   837.7    0.00 
  43   11:20   0.78   62.6    19    5.9   126    10.0   837.6    0.00 
  43   11:30   0.79   62.9    20    6.5   142     9.7   837.5    0.00 
  43   11:40   0.79   62.7    19    6.5   141     9.4   837.4    0.00 
  43   11:50   0.72   62.4    19    6.1   157     9.7   837.3    0.00 
  43   12:00   0.82   63.1    17    5.4   150     8.7   837.2    0.00 
  43   12:10   0.76   63.2    14    4.8   116     9.1   837.0    0.00 
  43   12:20   0.71   63.5    14    5.0   146     9.7   836.9    0.00 
  43   12:30   0.75   63.0    13    4.1   129     8.0   836.8    0.00 
  43   12:40   0.74   63.6    14    4.3   173     8.3   836.7    0.00 
  43   12:50   0.66   64.0    13    5.1   173     8.5   836.5    0.00 
  43   13:00   0.61   63.6    13    5.1   169     8.2   836.4    0.00 
  43   13:10   0.66   63.7    12    4.6   159     8.2   836.4    0.00 
  43   13:20   0.69   64.5    12    3.6   168     6.6   836.2    0.00 
  43   13:30   0.69   64.2    12    5.0   147     8.8   836.1    0.00 
  43   13:40   0.65   63.6    13    6.1   136     9.7   836.0    0.00 
  43   13:50   0.54   63.6    13    5.3   147     9.6   836.0    0.00 
  43   14:00   0.54   63.8    12    5.5   153     9.4   835.9    0.00 
  43   14:10   0.56   64.1    12    4.4   153     7.7   835.9    0.00 

Return to Badger Spring Valley graphs page.


Western Regional Climate Center,wrcc@dri.edu